Portada
METAR-TAF:

METAR-TAF

Aeroports :

Aeroport Internacional de Pequín

Pequín, Xina

latitud: 39-56N, longitud: 116-17E, altitud: 55 m

Observació

L'informe es va fer fa 26 minuts, a les 10:30 UTC
Vent 2 kt amb direcció variable
Temperatura 15°C
Humitat 51%
Pressió 1018 hPa
Visibilitat: 8000 m

METAR: ZBAA 261030Z VRB01MPS 8000 NSC 15/05 Q1018 NOSIG

Hora: 18:56 (10:56 UTC)

Pronòstic

L'informe es va fer fa 7 hores i 54 minuts, a les 03:02 UTC
Pronòstic vàlid del 26 a les 06 UTC al 27 a les 06 UTC
Vent 14 kt del Nord-Oest amb ràfegues de 29 kt
Visibilitat 10 km o més
sense núvols per sota de 1500 mi sense presència de cumulonimbus.
Evolucionant progressivament
l' 26 a les 13 UTC al 26 a les 14 UTC
Vent 8 kt del Nord

TAF: ZBAA 260302Z 2606/2706 31007G15MPS CAVOK TX22/2607Z TN02/2621Z BECMG 2613/2614 01004MPS

Observacions i pronòstics meteorològics de més de 4000 aeroports (METAR i TAF).

Les estacions disponibles són els punts grocs i vermells al mapa.

Posi el ratolí al punt desitjat per veure el nom de l'estació.

Feu clic per veure les observacions i els pronòstics meteorològics.

Per canviar el mapa: feu clic els botons verds amb una creu de color negre per apropar; al botó verd amb un guió per allunyar la imatge; o en les fletxes verdes per a mapes adjacents.


METAR-TAF: